Terminal Aerodrome Forecast
Issued by NWS

Home | Current Version | Previous Version | Text Only | Print | Product List | Glossary Off
Versions: 1 2 3 4 5 6 7 8 9 10 11 12 13 14 15 16 17 18

000
FTUS43 KGRB 062320
TAFATW
TAF
KATW 062320Z 0700/0724 23010G18KT P6SM -SHRA SCT012 OVC025
      TEMPO 0700/0702 2SM SHRA BR BKN012
     FM070200 34012KT 5SM SHRA BR BKN008 OVC040
     FM070500 34012G18KT 6SM -SHRA BR BKN015
     FM070800 34011KT P6SM SCT015 OVC030
     FM071400 36011KT P6SM SCT030=

USA.gov is the U.S. government's official web portal to all federal, state and local government web resources and services.